Flight Track Log - Related Links

Times and Time Zones

All times are in EDT time to prevent confusion due to time zone crossing. See the MTN8324 flight status page for this flight to view local times or setup timezone preferences in your user account.

Time Position Orientation Groundspeed Altitude Reporting Facility
EDT Latitude Longitude Course Direction KTS MPH feet Rate Location/Type
Tue 04:41:15 AM 40.7500 -74.1500 342° North 179 206 2,300  Level New TRACON
Tue 04:42:15 AM 40.8000 -74.1667 346° North 190 219 3,900 1,650 Climbing New TRACON
Tue 04:43:15 AM 40.8500 -74.2000 333° Northwest 194 223 5,600 1,700 Climbing New TRACON
Tue 04:44:15 AM 40.9000 -74.2333 333° Northwest 200 230 7,300 1,550 Climbing New TRACON
Tue 04:45:15 AM 40.9333 -74.2667 323° Northwest 203 234 8,700 1,414 Climbing New TRACON
Tue 04:46:00 AM 41.1487 -74.3790 342° North  Level FlightAware
Tue 04:46:52 AM 41.0186 -74.3242 333° Northwest 217 250 11,000  Level New Center
Tue 04:47:52 AM 41.0739 -74.3575 336° Northwest 212 244 12,000 496 Climbing New Center
Tue 04:48:53 AM 41.1247 -74.3931 332° Northwest 219 252 12,000  Level New Center
Tue 04:49:52 AM 41.1961 -74.4411 333° Northwest 248 285 12,000  Level New Center
Tue 04:50:51 AM 41.2553 -74.4831 332° Northwest 260 299 12,000  Level New Center
Tue 04:51:51 AM 41.3306 -74.5369 332° Northwest 265 305 12,000  Level New Center
Tue 04:52:52 AM 41.3917 -74.5789 333° Northwest 270 311 12,000 150 Level New Center
Tue 04:53:51 AM 41.4431 -74.6678 308° West 270 311 12,300 1,109 Climbing New Center
Tue 04:54:51 AM 41.4678 -74.7356 296° West 250 288 14,200 1,500 Climbing New Center
Tue 04:55:51 AM 41.4986 -74.8150 297° West 227 261 15,300 885 Climbing New Center
Tue 04:56:53 AM 41.5236 -74.8747 299° West 215 247 16,000 295 Climbing New Center
Tue 04:57:53 AM 41.5561 -74.9514 300° West 220 253 15,900 -51 Descending New Center
Tue 04:58:51 AM 41.5906 -75.0422 297° West 250 288 15,900  Level New Center
Tue 04:59:53 AM 41.6228 -75.1278 297° West 256 295 15,900  Level New Center
Tue 05:00:54 AM 41.6569 -75.2158 297° West 261 300 15,900  Level New Center
Tue 05:01:53 AM 41.6892 -75.2958 298° West 266 306 15,900  Level New Center
Tue 05:02:51 AM 41.7250 -75.3956 296° West 266 306 15,900  Level New Center
Tue 05:03:52 AM 41.7592 -75.4814 298° West 266 306 15,900  Level New Center
Tue 05:04:54 AM 41.7950 -75.5728 298° West 266 306 15,900  Level New Center
Tue 05:05:51 AM 41.8272 -75.6503 299° West 266 306 15,900  Level New Center
Tue 05:06:51 AM 41.8628 -75.7478 296° West 271 312 15,900  Level New Center
Tue 05:07:51 AM 41.8950 -75.8253 299° West 271 312 15,900  Level New Center
Tue 05:08:53 AM 41.9286 -75.9142 297° West 271 312 15,900  Level New Center
Tue 05:09:54 AM 41.9658 -76.0119 297° West 271 312 15,900  Level New Center
Tue 05:11:45 AM 42.0278 -76.1772 297° West 278 320 15,900 70 Level Cleveland Center
Tue 05:12:45 AM 42.0603 -76.2644 297° West 278 320 16,100 100 Climbing Cleveland Center
Tue 05:13:45 AM 42.0969 -76.3544 299° West 278 320 16,100  Level Cleveland Center
Tue 05:14:45 AM 42.1314 -76.4444 297° West 278 320 16,100  Level Cleveland Center
Tue 05:15:45 AM 42.1639 -76.5347 296° West 273 314 16,100  Level Cleveland Center
Tue 05:16:45 AM 42.1983 -76.6225 298° West 273 314 16,100  Level Cleveland Center
Tue 05:17:45 AM 42.2325 -76.7128 297° West 273 314 16,100  Level Cleveland Center
Tue 05:18:45 AM 42.2669 -76.8033 297° West 273 314 16,100  Level Cleveland Center
Tue 05:19:45 AM 42.2992 -76.8942 296° West 273 314 16,100  Level Cleveland Center
Tue 05:20:45 AM 42.3356 -76.9931 296° West 273 314 16,100  Level Cleveland Center
Tue 05:21:45 AM 42.3697 -77.0839 297° West 273 314 16,100  Level Cleveland Center
Tue 05:22:45 AM 42.4014 -77.1750 295° West 273 314 16,100  Level Cleveland Center
Tue 05:23:45 AM 42.4353 -77.2633 297° West 273 314 16,100  Level Cleveland Center
Tue 05:24:45 AM 42.4669 -77.3517 296° West 273 314 16,100  Level Cleveland Center
Tue 05:25:45 AM 42.5008 -77.4400 298° West 273 314 16,100 -200 Level Cleveland Center
Tue 05:26:45 AM 42.5319 -77.5175 299° West 266 306 15,700 -700 Descending Cleveland Center
Tue 05:27:45 AM 42.5639 -77.6147 294° West 276 318 14,700 -1,000 Descending Cleveland Center
Tue 05:28:45 AM 42.5953 -77.7061 295° West 276 318 13,700 -1,150 Descending Cleveland Center
Tue 05:29:45 AM 42.6308 -77.7978 298° West 271 312 12,400 -1,350 Descending Cleveland Center
Tue 05:30:45 AM 42.6644 -77.8922 296° West 271 312 11,000 -700 Descending Cleveland Center
Tue 05:31:45 AM 42.6956 -77.9786 296° West 271 312 11,000  Level Cleveland Center
Tue 05:32:45 AM 42.7308 -78.0703 298° West 271 312 11,000  Level Cleveland Center
Tue 05:33:45 AM 42.7742 -78.1478 307° West 265 305 11,000 -600 Level Cleveland Center
Tue 05:34:45 AM 42.8158 -78.2425 301° West 271 312 9,800 -1,550 Descending Cleveland Center
Tue 05:35:45 AM 42.8506 -78.3119 304° West 275 316 7,900 -2,100 Descending Cleveland Center
Tue 05:36:45 AM 42.8936 -78.3842 309° West 240 276 5,600 -1,900 Descending Cleveland Center
Tue 05:37:45 AM 42.9281 -78.4425 309° West 223 257 4,100 -800 Descending Cleveland Center
Tue 05:38:45 AM 42.9625 -78.4981 310° West 198 228 4,000 -700 Descending Cleveland Center
Tue 05:39:45 AM 42.9906 -78.5511 306° West 198 228 2,700 -600 Descending Cleveland Center
Tue 05:41:35 AM 43.0000 -78.6500 277° West 149 171 2,300 -388 Descending Buffalo TRACON
Tue 05:42:35 AM 42.9833 -78.6833 236° Southwest 106 122 1,600 -650 Descending Buffalo TRACON
Tue 05:43:35 AM 42.9500 -78.7000 200° South 106 122 1,000 -600 Descending Buffalo TRACON
Tue 05:45:00 AM 42.9333 -78.7167 248° West  Level FlightAware

Login

Don't have an account? Register now (free) for customized features, flight alerts, and more!